Time;durP1;ratioP1;P1;durP2;ratioP2;P2;SDS_P1;SDS_P2;PMS_P1;PMS_P2;Temp;Humidity;BMP_temperature;BMP_pressure;BME280_temperature;BME280_humidity;BME280_pressure;Samples;Min_cycle;Max_cycle;Signal;HPM_P1;HPM_P2
2023/06/29 00:01:46;;;;;;;5.00;2.20;;;;;;;;;;5013227;28;20029;-62
2023/06/29 00:04:21;;;;;;;4.72;1.90;;;;;;;;;;5013186;28;20063;-64
2023/06/29 00:06:46;;;;;;;4.88;1.98;;;;;;;;;;5013275;28;20540;-62
2023/06/29 00:09:12;;;;;;;4.50;2.30;;;;;;;;;;5013307;28;20030;-62
2023/06/29 00:11:37;;;;;;;6.40;2.13;;;;;;;;;;5012797;28;20376;-63
2023/06/29 00:14:02;;;;;;;4.57;2.10;;;;;;;;;;5013079;28;20032;-63
2023/06/29 00:16:30;;;;;;;5.70;2.00;;;;;;;;;;5012948;28;20148;-62
2023/06/29 00:18:56;;;;;;;4.78;1.77;;;;;;;;;;5012716;28;20045;-63
2023/06/29 00:21:21;;;;;;;6.50;2.10;;;;;;;;;;5012822;28;20484;-63
2023/06/29 00:23:46;;;;;;;3.55;2.00;;;;;;;;;;5013055;28;20360;-62
2023/06/29 00:26:13;;;;;;;6.80;2.20;;;;;;;;;;5012658;28;20109;-63
2023/06/29 00:28:39;;;;;;;4.20;1.90;;;;;;;;;;5013020;28;20050;-63
2023/06/29 00:31:04;;;;;;;3.78;2.72;;;;;;;;;;5012692;28;20538;-63
2023/06/29 00:33:30;;;;;;;4.10;2.42;;;;;;;;;;5012578;28;20025;-64
2023/06/29 00:35:55;;;;;;;5.22;2.20;;;;;;;;;;5012723;28;20033;-63
2023/06/29 00:38:21;;;;;;;3.00;2.30;;;;;;;;;;5012729;28;20378;-63
2023/06/29 00:40:48;;;;;;;3.80;2.30;;;;;;;;;;5012316;28;20446;-63
2023/06/29 00:43:13;;;;;;;3.05;1.98;;;;;;;;;;5012621;28;20125;-62
2023/06/29 00:45:39;;;;;;;5.88;2.08;;;;;;;;;;5012587;28;20105;-63
2023/06/29 00:48:05;;;;;;;8.18;1.95;;;;;;;;;;5013621;28;20030;-62
2023/06/29 00:50:31;;;;;;;3.88;1.88;;;;;;;;;;4997120;28;20026;-62
2023/06/29 00:52:56;;;;;;;3.35;2.05;;;;;;;;;;4997120;28;20082;-63
2023/06/29 00:55:22;;;;;;;3.33;2.00;;;;;;;;;;4996860;28;20027;-62
2023/06/29 00:57:47;;;;;;;4.30;2.00;;;;;;;;;;4995683;28;20034;-63
2023/06/29 01:00:14;;;;;;;5.28;1.90;;;;;;;;;;4997063;28;20023;-62
2023/06/29 01:02:40;;;;;;;3.25;1.80;;;;;;;;;;4997118;28;20030;-63
2023/06/29 01:05:10;;;;;;;3.80;2.08;;;;;;;;;;4996971;28;20133;-63
2023/06/29 01:07:38;;;;;;;3.97;2.00;;;;;;;;;;4996977;28;20062;-63
2023/06/29 01:10:05;;;;;;;4.45;2.00;;;;;;;;;;4998409;28;20101;-65
2023/06/29 01:12:32;;;;;;;3.58;1.90;;;;;;;;;;5016446;28;20452;-63
2023/06/29 01:14:58;;;;;;;2.60;1.70;;;;;;;;;;5016371;28;20030;-63
2023/06/29 01:17:27;;;;;;;3.17;1.55;;;;;;;;;;5016424;28;20044;-63
2023/06/29 01:19:54;;;;;;;3.25;1.67;;;;;;;;;;5016048;28;20037;-68
2023/06/29 01:22:41;;;;;;;4.03;1.80;;;;;;;;;;5016328;28;20109;-67
2023/06/29 01:25:08;;;;;;;3.50;1.60;;;;;;;;;;5015877;28;20505;-68
2023/06/29 01:27:34;;;;;;;5.50;1.73;;;;;;;;;;5016128;28;20034;-68
2023/06/29 01:30:01;;;;;;;4.55;1.52;;;;;;;;;;5016317;28;20032;-63
2023/06/29 01:32:34;;;;;;;4.57;1.92;;;;;;;;;;5015505;28;20032;-66
2023/06/29 01:35:01;;;;;;;4.13;1.85;;;;;;;;;;5014309;28;20057;-67
2023/06/29 01:37:37;;;;;;;6.05;1.90;;;;;;;;;;5008636;28;20398;-68
2023/06/29 01:40:08;;;;;;;3.15;1.60;;;;;;;;;;5005792;28;20029;-68
2023/06/29 01:42:35;;;;;;;12.07;2.13;;;;;;;;;;5021307;28;20042;-65
2023/06/29 01:45:05;;;;;;;7.63;1.73;;;;;;;;;;5023894;28;20033;-68
2023/06/29 01:47:31;;;;;;;5.10;2.00;;;;;;;;;;5021438;28;20484;-68
2023/06/29 01:49:57;;;;;;;4.15;1.80;;;;;;;;;;5023667;28;20036;-68
2023/06/29 01:52:24;;;;;;;4.05;1.73;;;;;;;;;;5023399;28;20057;-69
2023/06/29 01:54:50;;;;;;;4.63;1.80;;;;;;;;;;5020911;28;20030;-68
2023/06/29 01:57:16;;;;;;;5.20;1.65;;;;;;;;;;5024295;28;20072;-65
2023/06/29 01:59:42;;;;;;;7.50;2.38;;;;;;;;;;5024319;28;20062;-64
2023/06/29 02:02:07;;;;;;;3.90;1.98;;;;;;;;;;5023090;28;20109;-63
2023/06/29 02:04:33;;;;;;;4.00;2.00;;;;;;;;;;5024458;28;20176;-64
2023/06/29 02:06:59;;;;;;;4.25;1.80;;;;;;;;;;5027680;28;20037;-62
2023/06/29 02:09:24;;;;;;;6.65;1.80;;;;;;;;;;5035292;28;20489;-63
2023/06/29 02:11:50;;;;;;;6.63;2.05;;;;;;;;;;5035224;28;20091;-66
2023/06/29 02:14:18;;;;;;;7.95;2.17;;;;;;;;;;5035309;28;20032;-63
2023/06/29 02:16:47;;;;;;;3.63;2.10;;;;;;;;;;5035325;28;20102;-64
2023/06/29 02:19:13;;;;;;;4.38;1.98;;;;;;;;;;5022707;28;20479;-65
2023/06/29 02:21:39;;;;;;;3.53;1.80;;;;;;;;;;5015327;28;20041;-64
2023/06/29 02:24:04;;;;;;;6.85;1.65;;;;;;;;;;5015296;28;20467;-63
2023/06/29 02:26:30;;;;;;;4.75;2.03;;;;;;;;;;5015096;28;20036;-65
2023/06/29 02:28:55;;;;;;;5.10;2.20;;;;;;;;;;5015412;28;20064;-64
2023/06/29 02:31:21;;;;;;;4.07;2.10;;;;;;;;;;5015131;28;20460;-64
2023/06/29 02:33:47;;;;;;;7.10;1.88;;;;;;;;;;5015041;28;20045;-66
2023/06/29 02:36:13;;;;;;;4.60;1.80;;;;;;;;;;5014696;28;20030;-67
2023/06/29 02:38:38;;;;;;;3.42;2.20;;;;;;;;;;5015044;28;20084;-63
2023/06/29 02:41:04;;;;;;;3.58;1.90;;;;;;;;;;5013593;28;20013;-66
2023/06/29 02:43:29;;;;;;;6.70;2.20;;;;;;;;;;5014711;28;20091;-68
2023/06/29 02:45:55;;;;;;;5.38;2.15;;;;;;;;;;5014801;28;20427;-65
2023/06/29 02:48:20;;;;;;;12.23;2.80;;;;;;;;;;5014788;28;20034;-63
2023/06/29 02:50:45;;;;;;;8.98;2.50;;;;;;;;;;5014655;28;20418;-63
2023/06/29 02:53:14;;;;;;;3.95;1.90;;;;;;;;;;5014672;28;20029;-63
2023/06/29 02:55:40;;;;;;;6.07;2.53;;;;;;;;;;5014613;28;20041;-65
2023/06/29 02:58:05;;;;;;;8.60;3.47;;;;;;;;;;5014876;28;20446;-66
2023/06/29 03:00:31;;;;;;;12.43;6.75;;;;;;;;;;5014697;28;20026;-64
2023/06/29 03:02:56;;;;;;;11.15;3.90;;;;;;;;;;5014467;28;20109;-64
2023/06/29 03:05:22;;;;;;;6.60;3.17;;;;;;;;;;5014337;28;20018;-65
2023/06/29 03:07:47;;;;;;;5.78;2.75;;;;;;;;;;5014392;28;20382;-64
2023/06/29 03:10:12;;;;;;;4.45;2.30;;;;;;;;;;5014552;28;20021;-66
2023/06/29 03:12:38;;;;;;;5.07;2.20;;;;;;;;;;5013418;28;20018;-65
2023/06/29 03:15:04;;;;;;;4.65;2.17;;;;;;;;;;5014368;28;20037;-66
2023/06/29 03:17:29;;;;;;;5.53;2.10;;;;;;;;;;5014344;28;20041;-65
2023/06/29 03:19:55;;;;;;;5.40;2.00;;;;;;;;;;5014403;28;20420;-63
2023/06/29 03:22:20;;;;;;;4.45;1.80;;;;;;;;;;5014075;28;20167;-64
2023/06/29 03:24:45;;;;;;;5.30;2.05;;;;;;;;;;5014116;28;20025;-66
2023/06/29 03:27:11;;;;;;;8.43;3.92;;;;;;;;;;5014157;28;20033;-62
2023/06/29 03:29:36;;;;;;;8.43;4.10;;;;;;;;;;5013928;28;20018;-64
2023/06/29 03:32:02;;;;;;;23.58;12.05;;;;;;;;;;5014155;28;20033;-63
2023/06/29 03:34:27;;;;;;;10.63;3.13;;;;;;;;;;5013701;28;20022;-64
2023/06/29 03:36:52;;;;;;;9.25;4.45;;;;;;;;;;5013828;28;20033;-66
2023/06/29 03:39:19;;;;;;;11.98;4.60;;;;;;;;;;5013741;28;20032;-62
2023/06/29 03:41:44;;;;;;;7.82;4.28;;;;;;;;;;5013500;28;20124;-63
2023/06/29 03:44:10;;;;;;;6.82;2.72;;;;;;;;;;5013825;28;20062;-63
2023/06/29 03:46:36;;;;;;;7.50;2.97;;;;;;;;;;5013902;28;20045;-63
2023/06/29 03:49:01;;;;;;;6.15;2.50;;;;;;;;;;5013540;28;20093;-64
2023/06/29 03:51:26;;;;;;;6.95;2.38;;;;;;;;;;5013833;28;20033;-65
2023/06/29 03:53:52;;;;;;;9.05;3.10;;;;;;;;;;5013749;28;20021;-63
2023/06/29 03:56:17;;;;;;;5.07;2.53;;;;;;;;;;5013510;28;20060;-63
2023/06/29 03:58:43;;;;;;;5.45;2.67;;;;;;;;;;5013636;28;20467;-65
2023/06/29 04:01:08;;;;;;;5.18;2.83;;;;;;;;;;5013623;28;20079;-66
2023/06/29 04:03:33;;;;;;;12.30;2.75;;;;;;;;;;5013331;28;20017;-64
2023/06/29 04:05:59;;;;;;;4.60;2.22;;;;;;;;;;5013180;28;20030;-66
2023/06/29 04:08:24;;;;;;;10.30;2.50;;;;;;;;;;5013386;28;20080;-63
2023/06/29 04:10:50;;;;;;;5.32;2.67;;;;;;;;;;5013401;28;20037;-64
2023/06/29 04:13:15;;;;;;;8.27;2.70;;;;;;;;;;5013292;28;20033;-64
2023/06/29 04:15:41;;;;;;;5.18;2.47;;;;;;;;;;5013217;28;20026;-64
2023/06/29 04:18:07;;;;;;;9.82;3.00;;;;;;;;;;5013166;28;20112;-63
2023/06/29 04:20:32;;;;;;;6.00;2.50;;;;;;;;;;5013026;28;20113;-63
2023/06/29 04:22:58;;;;;;;9.48;2.60;;;;;;;;;;5012923;28;20029;-65
2023/06/29 04:25:23;;;;;;;6.75;2.60;;;;;;;;;;5013187;28;20109;-63
2023/06/29 04:27:49;;;;;;;5.30;2.38;;;;;;;;;;5012981;28;20506;-64
2023/06/29 04:30:17;;;;;;;7.55;2.40;;;;;;;;;;5013077;28;20030;-64
2023/06/29 04:32:43;;;;;;;7.03;2.47;;;;;;;;;;5012806;28;20058;-64
2023/06/29 04:35:09;;;;;;;5.00;2.47;;;;;;;;;;5012842;28;20034;-64
2023/06/29 04:37:40;;;;;;;5.18;2.55;;;;;;;;;;5012906;28;20485;-64
2023/06/29 04:40:07;;;;;;;5.80;2.58;;;;;;;;;;5012923;28;20390;-67
2023/06/29 04:42:32;;;;;;;5.78;3.38;;;;;;;;;;5012765;28;20437;-63
2023/06/29 04:45:00;;;;;;;8.25;3.20;;;;;;;;;;5012903;28;20021;-63
2023/06/29 04:47:26;;;;;;;10.52;3.17;;;;;;;;;;5012696;28;20041;-63
2023/06/29 04:49:52;;;;;;;5.78;2.58;;;;;;;;;;5012716;28;20160;-66
2023/06/29 04:52:21;;;;;;;5.10;2.53;;;;;;;;;;5012847;28;20033;-63
2023/06/29 04:54:46;;;;;;;6.88;3.00;;;;;;;;;;5012967;28;20069;-63
2023/06/29 04:57:14;;;;;;;9.35;2.70;;;;;;;;;;5012696;28;20068;-63
2023/06/29 04:59:39;;;;;;;7.25;2.70;;;;;;;;;;5012851;28;20038;-63
2023/06/29 05:02:05;;;;;;;10.65;2.88;;;;;;;;;;5012812;28;20044;-66
2023/06/29 05:04:31;;;;;;;5.65;2.58;;;;;;;;;;5012750;28;20169;-63
2023/06/29 05:06:56;;;;;;;6.18;2.50;;;;;;;;;;5012724;28;20026;-63
2023/06/29 05:09:22;;;;;;;11.63;3.22;;;;;;;;;;5012826;28;20026;-63
2023/06/29 05:11:47;;;;;;;7.15;2.80;;;;;;;;;;5012458;28;20360;-62
2023/06/29 05:14:13;;;;;;;6.30;2.60;;;;;;;;;;5012474;28;20085;-65
2023/06/29 05:16:38;;;;;;;9.50;2.45;;;;;;;;;;5012606;28;20038;-63
2023/06/29 05:19:04;;;;;;;6.35;2.20;;;;;;;;;;5012482;28;20088;-64
2023/06/29 05:21:29;;;;;;;6.15;2.55;;;;;;;;;;5012566;28;20030;-64
2023/06/29 05:23:55;;;;;;;8.77;2.45;;;;;;;;;;5012501;28;20386;-63
2023/06/29 05:26:20;;;;;;;8.32;2.80;;;;;;;;;;5012564;28;20030;-63
2023/06/29 05:28:45;;;;;;;9.35;2.47;;;;;;;;;;5012520;28;20053;-63
2023/06/29 05:31:11;;;;;;;7.35;2.50;;;;;;;;;;5012290;28;20026;-63
2023/06/29 05:33:36;;;;;;;9.05;2.58;;;;;;;;;;5012576;28;20030;-63
2023/06/29 05:36:02;;;;;;;5.10;2.15;;;;;;;;;;5014613;28;20030;-63
2023/06/29 05:38:29;;;;;;;6.80;2.08;;;;;;;;;;5016175;28;20029;-63
2023/06/29 05:40:55;;;;;;;5.18;2.50;;;;;;;;;;5015778;28;20029;-63
2023/06/29 05:43:21;;;;;;;4.70;2.13;;;;;;;;;;5015829;28;20049;-63
2023/06/29 05:45:47;;;;;;;5.45;2.05;;;;;;;;;;5015731;28;20030;-63
2023/06/29 05:48:12;;;;;;;11.00;2.53;;;;;;;;;;5015668;28;20097;-66
2023/06/29 05:50:38;;;;;;;9.57;2.30;;;;;;;;;;5015999;28;20387;-64
2023/06/29 05:53:04;;;;;;;4.38;2.00;;;;;;;;;;5016151;28;20037;-63
2023/06/29 05:55:29;;;;;;;6.47;2.13;;;;;;;;;;5015788;28;20447;-63
2023/06/29 05:57:54;;;;;;;6.65;2.25;;;;;;;;;;5015932;28;20467;-64
2023/06/29 06:00:20;;;;;;;4.85;1.85;;;;;;;;;;5015378;28;20037;-63
2023/06/29 06:02:45;;;;;;;5.10;1.80;;;;;;;;;;5015791;28;20061;-65
2023/06/29 06:05:11;;;;;;;5.63;1.70;;;;;;;;;;5015826;28;20064;-63
2023/06/29 06:07:37;;;;;;;3.80;1.77;;;;;;;;;;5015685;28;20359;-63
2023/06/29 06:10:03;;;;;;;5.97;2.15;;;;;;;;;;5015767;28;20029;-63
2023/06/29 06:12:29;;;;;;;3.97;1.80;;;;;;;;;;5015463;28;20053;-63
2023/06/29 06:14:55;;;;;;;6.82;2.08;;;;;;;;;;5015337;28;20060;-63
2023/06/29 06:17:20;;;;;;;5.45;2.05;;;;;;;;;;5015462;28;20481;-64
2023/06/29 06:19:46;;;;;;;7.22;1.90;;;;;;;;;;5015212;28;20025;-63
2023/06/29 06:22:11;;;;;;;6.90;1.80;;;;;;;;;;5025723;28;20033;-64
2023/06/29 06:24:37;;;;;;;6.03;2.30;;;;;;;;;;5025066;28;20053;-63
2023/06/29 06:27:02;;;;;;;3.10;1.60;;;;;;;;;;5015401;28;20152;-63
2023/06/29 06:29:28;;;;;;;7.35;2.00;;;;;;;;;;5014794;28;20468;-62
2023/06/29 06:31:54;;;;;;;5.65;1.40;;;;;;;;;;5014972;28;20428;-62
2023/06/29 06:34:19;;;;;;;4.10;1.70;;;;;;;;;;5014461;28;20060;-64
2023/06/29 06:36:48;;;;;;;7.07;1.77;;;;;;;;;;5014686;28;20108;-64
2023/06/29 06:39:18;;;;;;;4.32;1.60;;;;;;;;;;5014416;28;20378;-62
2023/06/29 06:41:43;;;;;;;5.75;1.58;;;;;;;;;;5014349;28;20096;-62
2023/06/29 06:44:08;;;;;;;4.82;1.90;;;;;;;;;;5014083;28;20129;-63
2023/06/29 06:46:34;;;;;;;7.82;1.70;;;;;;;;;;5014226;28;20032;-63
2023/06/29 06:49:00;;;;;;;2.63;1.50;;;;;;;;;;5014592;28;20378;-63
2023/06/29 06:51:25;;;;;;;5.28;1.60;;;;;;;;;;5014565;28;20132;-66
2023/06/29 06:53:51;;;;;;;7.40;2.58;;;;;;;;;;5014455;28;20104;-63
2023/06/29 06:56:17;;;;;;;3.95;1.50;;;;;;;;;;5014252;28;20435;-62
2023/06/29 06:58:42;;;;;;;8.55;2.05;;;;;;;;;;4996609;28;20046;-63
2023/06/29 07:01:08;;;;;;;7.05;1.60;;;;;;;;;;5014432;28;20498;-63
2023/06/29 07:03:33;;;;;;;5.47;1.60;;;;;;;;;;5014256;28;20050;-64
2023/06/29 07:05:58;;;;;;;8.75;2.10;;;;;;;;;;5014144;28;20026;-63
2023/06/29 07:08:24;;;;;;;4.68;1.38;;;;;;;;;;5014144;28;20037;-63
2023/06/29 07:10:51;;;;;;;8.10;1.95;;;;;;;;;;5014299;28;20030;-64
2023/06/29 07:13:18;;;;;;;6.15;1.58;;;;;;;;;;5014072;28;20033;-63
2023/06/29 07:15:45;;;;;;;3.53;1.55;;;;;;;;;;4996358;28;20029;-65
2023/06/29 07:18:10;;;;;;;4.30;1.55;;;;;;;;;;5013985;28;20036;-62
2023/06/29 07:20:36;;;;;;;9.70;1.75;;;;;;;;;;5013658;28;20034;-63
2023/06/29 07:23:01;;;;;;;5.82;1.92;;;;;;;;;;5013816;28;20025;-63
2023/06/29 07:25:26;;;;;;;4.00;1.60;;;;;;;;;;5013907;28;20383;-63
2023/06/29 07:27:52;;;;;;;6.72;1.80;;;;;;;;;;5013472;28;20037;-63
2023/06/29 07:30:17;;;;;;;4.78;1.60;;;;;;;;;;5013700;28;20053;-66
2023/06/29 07:32:43;;;;;;;4.10;1.75;;;;;;;;;;5013583;28;20064;-64
2023/06/29 07:35:09;;;;;;;2.38;1.30;;;;;;;;;;5013649;28;20045;-63
2023/06/29 07:37:35;;;;;;;3.45;1.98;;;;;;;;;;5013636;28;20033;-63
2023/06/29 07:40:02;;;;;;;7.78;1.88;;;;;;;;;;5013452;28;20034;-63
2023/06/29 07:42:27;;;;;;;4.78;1.60;;;;;;;;;;5012861;28;20052;-65
2023/06/29 07:44:53;;;;;;;5.57;1.50;;;;;;;;;;5013496;28;20105;-64
2023/06/29 07:47:18;;;;;;;3.70;1.45;;;;;;;;;;5013475;28;20033;-64
2023/06/29 07:49:44;;;;;;;4.28;1.40;;;;;;;;;;5013440;28;20026;-64
2023/06/29 07:52:09;;;;;;;3.95;1.40;;;;;;;;;;5013463;28;20064;-63
2023/06/29 07:54:34;;;;;;;3.22;1.50;;;;;;;;;;5013342;28;20025;-64
2023/06/29 07:57:00;;;;;;;4.45;1.75;;;;;;;;;;5013407;28;20470;-64
2023/06/29 07:59:26;;;;;;;5.28;1.63;;;;;;;;;;5012896;28;20113;-64
2023/06/29 08:01:53;;;;;;;3.13;1.50;;;;;;;;;;5013323;28;20061;-64
2023/06/29 08:04:18;;;;;;;6.25;1.50;;;;;;;;;;5013020;28;20494;-64
2023/06/29 08:06:43;;;;;;;5.10;1.60;;;;;;;;;;5013166;28;20112;-64
2023/06/29 08:09:12;;;;;;;3.30;1.40;;;;;;;;;;5013243;28;20026;-63
2023/06/29 08:11:38;;;;;;;4.20;1.40;;;;;;;;;;5013010;28;20076;-63
2023/06/29 08:14:04;;;;;;;3.08;1.40;;;;;;;;;;5013058;28;20077;-64
2023/06/29 08:16:30;;;;;;;4.88;1.70;;;;;;;;;;5012688;28;20427;-63
2023/06/29 08:18:57;;;;;;;3.90;1.40;;;;;;;;;;5012747;28;20026;-65
2023/06/29 08:21:23;;;;;;;3.95;1.30;;;;;;;;;;5012890;28;20026;-64
2023/06/29 08:23:50;;;;;;;6.50;1.40;;;;;;;;;;5021983;28;20040;-64
2023/06/29 08:26:16;;;;;;;3.92;1.50;;;;;;;;;;5032328;28;20037;-63
2023/06/29 08:28:41;;;;;;;4.03;1.50;;;;;;;;;;5013012;28;20034;-64
2023/06/29 08:31:07;;;;;;;3.90;1.33;;;;;;;;;;5012992;28;20025;-64
2023/06/29 08:33:32;;;;;;;4.95;1.40;;;;;;;;;;5012607;28;20057;-63
2023/06/29 08:35:58;;;;;;;4.82;1.33;;;;;;;;;;5012571;28;20119;-64
2023/06/29 08:38:23;;;;;;;5.55;1.80;;;;;;;;;;5012614;28;20037;-64
2023/06/29 08:40:49;;;;;;;2.72;1.30;;;;;;;;;;5012290;28;20041;-64
2023/06/29 08:43:18;;;;;;;7.10;1.75;;;;;;;;;;5012700;28;20053;-63
2023/06/29 08:45:45;;;;;;;6.57;1.90;;;;;;;;;;5012552;28;20025;-64
2023/06/29 08:48:16;;;;;;;3.55;1.40;;;;;;;;;;5012664;28;20044;-65
2023/06/29 08:50:54;;;;;;;3.53;1.85;;;;;;;;;;5012722;28;20021;-63
2023/06/29 08:53:20;;;;;;;4.93;1.70;;;;;;;;;;5012644;28;20026;-63
2023/06/29 08:55:46;;;;;;;5.13;1.75;;;;;;;;;;5012339;28;20335;-63
2023/06/29 08:58:12;;;;;;;3.95;1.45;;;;;;;;;;5012480;28;20054;-63
2023/06/29 09:00:38;;;;;;;5.35;1.48;;;;;;;;;;5012540;28;20065;-66
2023/06/29 09:03:04;;;;;;;4.45;1.83;;;;;;;;;;5012498;28;20022;-64
2023/06/29 09:05:29;;;;;;;4.60;1.70;;;;;;;;;;5012436;28;20026;-63
2023/06/29 09:07:55;;;;;;;3.47;1.42;;;;;;;;;;5012347;28;20109;-64
2023/06/29 09:10:22;;;;;;;5.05;1.67;;;;;;;;;;5013350;28;20022;-63
2023/06/29 09:12:49;;;;;;;3.53;1.45;;;;;;;;;;5016363;28;20488;-64
2023/06/29 09:15:16;;;;;;;5.60;1.38;;;;;;;;;;5016389;28;20030;-63
2023/06/29 09:17:48;;;;;;;7.28;1.60;;;;;;;;;;5016215;28;20105;-63
2023/06/29 09:20:15;;;;;;;7.82;1.70;;;;;;;;;;5015916;28;20455;-63
2023/06/29 09:22:41;;;;;;;4.60;1.73;;;;;;;;;;5016016;28;20164;-64
2023/06/29 09:25:09;;;;;;;4.53;1.90;;;;;;;;;;5015950;28;20092;-64
2023/06/29 09:27:35;;;;;;;4.38;1.85;;;;;;;;;;5016039;28;20113;-63
2023/06/29 09:30:02;;;;;;;4.40;1.60;;;;;;;;;;5015868;28;20164;-64
2023/06/29 09:32:35;;;;;;;8.30;2.03;;;;;;;;;;5015915;28;20034;-63
2023/06/29 09:35:06;;;;;;;3.13;1.52;;;;;;;;;;5015860;28;20517;-64
2023/06/29 09:37:33;;;;;;;8.05;1.80;;;;;;;;;;5015546;28;20034;-63
2023/06/29 09:39:59;;;;;;;6.30;1.63;;;;;;;;;;5015512;28;20103;-65
2023/06/29 09:42:28;;;;;;;4.20;1.45;;;;;;;;;;5015633;28;20050;-63
2023/06/29 09:44:54;;;;;;;3.33;1.38;;;;;;;;;;5015744;28;20026;-63
2023/06/29 09:47:20;;;;;;;4.95;1.85;;;;;;;;;;5015711;28;20036;-63
2023/06/29 09:49:47;;;;;;;3.70;1.60;;;;;;;;;;5015556;28;20101;-63
2023/06/29 09:52:13;;;;;;;3.65;1.70;;;;;;;;;;5030570;28;20025;-63
2023/06/29 09:54:39;;;;;;;5.97;1.80;;;;;;;;;;5015548;28;20048;-63
2023/06/29 09:57:05;;;;;;;7.05;2.00;;;;;;;;;;5015616;28;20475;-63
2023/06/29 09:59:31;;;;;;;6.90;1.73;;;;;;;;;;5015539;28;20053;-62
2023/06/29 10:01:57;;;;;;;7.57;1.60;;;;;;;;;;5015399;28;20026;-63
2023/06/29 10:04:24;;;;;;;4.53;1.52;;;;;;;;;;5015260;28;20028;-63
2023/06/29 10:06:56;;;;;;;3.55;1.50;;;;;;;;;;5015181;28;20156;-65
2023/06/29 10:09:23;;;;;;;5.18;1.75;;;;;;;;;;5015531;28;20026;-63
2023/06/29 10:11:53;;;;;;;4.85;1.60;;;;;;;;;;5015329;28;20065;-63
2023/06/29 10:14:21;;;;;;;4.47;1.83;;;;;;;;;;5015107;28;20030;-63
2023/06/29 10:16:50;;;;;;;3.95;1.73;;;;;;;;;;5015195;28;20371;-64
2023/06/29 10:19:20;;;;;;;7.65;2.72;;;;;;;;;;5015183;28;20064;-63
2023/06/29 10:21:49;;;;;;;6.10;2.28;;;;;;;;;;5014189;28;20017;-63
2023/06/29 10:24:19;;;;;;;4.70;1.77;;;;;;;;;;5014785;28;20088;-64
2023/06/29 10:26:47;;;;;;;6.93;1.50;;;;;;;;;;5014974;28;20101;-63
2023/06/29 10:29:12;;;;;;;5.35;2.13;;;;;;;;;;5014742;28;20034;-63
2023/06/29 10:31:45;;;;;;;3.60;1.77;;;;;;;;;;5014851;28;20159;-63
2023/06/29 10:34:11;;;;;;;4.50;1.98;;;;;;;;;;5014487;28;20022;-63
2023/06/29 10:36:49;;;;;;;3.47;1.70;;;;;;;;;;5014314;28;20471;-63
2023/06/29 10:39:40;;;;;;;3.78;1.85;;;;;;;;;;5014632;28;20104;-64
2023/06/29 10:42:11;;;;;;;3.97;1.73;;;;;;;;;;5014390;28;20042;-67
2023/06/29 10:44:37;;;;;;;7.30;2.05;;;;;;;;;;5014565;28;20032;-61
2023/06/29 10:47:03;;;;;;;4.45;1.50;;;;;;;;;;5014570;28;20379;-62
2023/06/29 10:49:29;;;;;;;2.33;1.50;;;;;;;;;;5014548;28;20030;-63
2023/06/29 10:52:01;;;;;;;2.50;1.35;;;;;;;;;;5014318;28;20029;-62
2023/06/29 10:54:26;;;;;;;2.85;1.48;;;;;;;;;;5014299;28;20474;-62
2023/06/29 10:57:06;;;;;;;2.03;1.23;;;;;;;;;;5014511;28;20037;-61
2023/06/29 10:59:33;;;;;;;2.92;1.63;;;;;;;;;;5014485;28;20127;-62
2023/06/29 11:01:59;;;;;;;2.92;1.63;;;;;;;;;;5014238;28;20041;-64
2023/06/29 11:04:24;;;;;;;5.30;2.00;;;;;;;;;;5013786;28;20467;-62
2023/06/29 11:06:50;;;;;;;6.60;1.70;;;;;;;;;;5014337;28;20023;-66
2023/06/29 11:09:16;;;;;;;4.55;1.75;;;;;;;;;;5014154;28;20039;-63
2023/06/29 11:11:47;;;;;;;11.30;2.28;;;;;;;;;;5013845;28;20104;-64
2023/06/29 11:14:13;;;;;;;7.55;1.60;;;;;;;;;;5013851;28;20022;-61
2023/06/29 11:16:39;;;;;;;3.47;1.40;;;;;;;;;;5013970;28;20061;-63
2023/06/29 11:19:05;;;;;;;1.77;1.17;;;;;;;;;;5013552;28;20022;-61
2023/06/29 11:21:31;;;;;;;6.25;1.30;;;;;;;;;;5013673;28;20026;-62
2023/06/29 11:23:56;;;;;;;4.82;1.40;;;;;;;;;;5013613;28;20095;-62
2023/06/29 11:26:23;;;;;;;4.15;1.50;;;;;;;;;;5013321;28;20079;-62
2023/06/29 11:28:49;;;;;;;3.97;1.48;;;;;;;;;;5014043;28;20348;-62
2023/06/29 11:31:16;;;;;;;3.33;1.70;;;;;;;;;;5013733;28;20030;-66
2023/06/29 11:33:49;;;;;;;3.78;1.80;;;;;;;;;;5027597;28;20382;-63
2023/06/29 11:36:14;;;;;;;2.88;1.23;;;;;;;;;;5013654;28;20117;-65
2023/06/29 11:38:40;;;;;;;3.80;1.48;;;;;;;;;;5013622;28;20101;-62
2023/06/29 11:41:06;;;;;;;6.53;1.70;;;;;;;;;;5013291;28;20026;-62
2023/06/29 11:43:31;;;;;;;2.80;1.50;;;;;;;;;;5013596;28;20136;-63
2023/06/29 11:45:57;;;;;;;3.38;1.60;;;;;;;;;;5013595;28;20061;-62
2023/06/29 11:48:23;;;;;;;4.63;1.40;;;;;;;;;;5013138;28;20033;-61
2023/06/29 11:50:48;;;;;;;4.05;1.45;;;;;;;;;;5013356;28;20037;-64
2023/06/29 11:53:15;;;;;;;5.90;2.10;;;;;;;;;;5013512;28;20034;-63
2023/06/29 11:55:50;;;;;;;3.58;1.02;;;;;;;;;;5013387;28;20487;-61
2023/06/29 11:58:16;;;;;;;2.83;1.40;;;;;;;;;;5013124;28;20029;-61
2023/06/29 12:00:41;;;;;;;5.60;1.33;;;;;;;;;;5013250;28;20419;-62
2023/06/29 12:03:08;;;;;;;4.22;1.42;;;;;;;;;;5012996;28;20073;-61
2023/06/29 12:05:38;;;;;;;4.30;1.60;;;;;;;;;;5013185;28;20378;-61
2023/06/29 12:08:05;;;;;;;4.15;1.52;;;;;;;;;;5013046;28;20032;-61
2023/06/29 12:10:34;;;;;;;3.85;1.70;;;;;;;;;;5012810;28;20482;-65
2023/06/29 12:13:01;;;;;;;5.20;1.90;;;;;;;;;;5013049;28;20058;-62
2023/06/29 12:15:29;;;;;;;3.53;1.75;;;;;;;;;;5013045;28;20026;-62
2023/06/29 12:18:13;;;;;;;4.30;1.90;;;;;;;;;;5012726;28;20045;-62
2023/06/29 12:20:43;;;;;;;3.30;1.80;;;;;;;;;;5012610;28;20468;-62
2023/06/29 12:23:12;;;;;;;9.32;3.10;;;;;;;;;;5012729;28;20499;-61
2023/06/29 12:25:42;;;;;;;5.13;1.95;;;;;;;;;;5012688;28;20026;-61
2023/06/29 12:28:07;;;;;;;3.60;2.10;;;;;;;;;;5012515;28;20022;-64
2023/06/29 12:30:33;;;;;;;5.22;2.00;;;;;;;;;;5012646;28;20026;-62
2023/06/29 12:33:00;;;;;;;4.75;1.85;;;;;;;;;;5012304;28;20030;-62
2023/06/29 12:35:25;;;;;;;3.35;1.88;;;;;;;;;;5012848;28;20036;-62
2023/06/29 12:37:53;;;;;;;4.28;1.90;;;;;;;;;;5012450;28;20034;-63
2023/06/29 12:40:18;;;;;;;3.13;2.00;;;;;;;;;;5012239;28;20049;-63
2023/06/29 12:42:43;;;;;;;3.25;1.95;;;;;;;;;;5012507;28;20519;-66
2023/06/29 12:45:09;;;;;;;2.67;1.90;;;;;;;;;;5012381;28;20026;-63
2023/06/29 12:47:35;;;;;;;3.90;2.00;;;;;;;;;;5012281;28;20478;-67
2023/06/29 12:50:03;;;;;;;2.70;1.77;;;;;;;;;;5012520;28;20037;-63
2023/06/29 12:52:28;;;;;;;6.82;2.33;;;;;;;;;;5012457;28;20026;-63
2023/06/29 12:54:55;;;;;;;4.65;2.15;;;;;;;;;;5012576;28;20092;-63
2023/06/29 12:57:26;;;;;;;5.05;2.53;;;;;;;;;;5012455;28;20437;-63
2023/06/29 12:59:53;;;;;;;7.38;2.83;;;;;;;;;;5012464;28;20025;-63
2023/06/29 13:02:18;;;;;;;3.95;2.45;;;;;;;;;;5011753;28;20390;-66
2023/06/29 13:04:44;;;;;;;4.55;2.15;;;;;;;;;;5012359;28;20038;-63
2023/06/29 13:07:09;;;;;;;4.05;2.30;;;;;;;;;;5012406;28;20018;-63
2023/06/29 13:09:37;;;;;;;5.82;2.38;;;;;;;;;;5012246;28;20026;-64
2023/06/29 13:12:03;;;;;;;4.07;2.28;;;;;;;;;;5012163;28;20478;-67
2023/06/29 13:14:33;;;;;;;3.33;2.05;;;;;;;;;;5012015;28;20030;-63
2023/06/29 13:16:59;;;;;;;7.05;2.30;;;;;;;;;;5012088;28;20034;-63
2023/06/29 13:19:26;;;;;;;3.90;2.10;;;;;;;;;;5011878;28;20084;-63
2023/06/29 13:21:53;;;;;;;4.30;1.92;;;;;;;;;;5011855;28;20033;-63
2023/06/29 13:24:18;;;;;;;4.85;2.00;;;;;;;;;;5011840;28;20033;-62
2023/06/29 13:26:44;;;;;;;3.72;1.92;;;;;;;;;;5011931;28;20385;-62
2023/06/29 13:29:10;;;;;;;3.78;1.80;;;;;;;;;;5011888;28;20028;-62
2023/06/29 13:31:35;;;;;;;3.47;1.50;;;;;;;;;;5012057;28;20030;-63
2023/06/29 13:34:01;;;;;;;4.35;1.95;;;;;;;;;;5011823;28;20026;-69
2023/06/29 13:36:26;;;;;;;3.42;1.80;;;;;;;;;;5011784;28;20033;-63
2023/06/29 13:38:52;;;;;;;4.43;1.70;;;;;;;;;;5011806;28;20026;-64
2023/06/29 13:41:36;;;;;;;6.25;1.80;;;;;;;;;;5011504;28;20026;-63
2023/06/29 13:44:07;;;;;;;3.20;1.50;;;;;;;;;;5011660;28;20058;-65
2023/06/29 13:46:33;;;;;;;3.67;1.90;;;;;;;;;;5011887;28;20022;-63
2023/06/29 13:48:59;;;;;;;3.22;1.60;;;;;;;;;;5011854;28;20087;-63
2023/06/29 13:51:27;;;;;;;2.75;1.63;;;;;;;;;;5012033;28;20029;-63
2023/06/29 13:53:53;;;;;;;4.35;1.63;;;;;;;;;;5011667;28;20487;-65
2023/06/29 13:56:18;;;;;;;4.95;1.40;;;;;;;;;;5012712;28;20041;-63
2023/06/29 13:58:43;;;;;;;2.00;1.23;;;;;;;;;;5015207;28;20037;-66
2023/06/29 14:01:09;;;;;;;3.30;1.40;;;;;;;;;;5015424;28;20029;-64
2023/06/29 14:03:34;;;;;;;2.97;1.42;;;;;;;;;;5015124;28;20033;-63
2023/06/29 14:06:00;;;;;;;2.25;1.30;;;;;;;;;;5015208;28;20545;-64
2023/06/29 14:08:25;;;;;;;4.68;1.73;;;;;;;;;;5015072;28;20057;-64
2023/06/29 14:10:51;;;;;;;3.33;1.50;;;;;;;;;;5015090;28;20112;-63
2023/06/29 14:13:16;;;;;;;4.80;1.58;;;;;;;;;;5014951;28;20018;-63
2023/06/29 14:15:42;;;;;;;4.50;1.58;;;;;;;;;;5015024;28;20034;-63
2023/06/29 14:18:07;;;;;;;5.43;2.10;;;;;;;;;;5014914;28;20110;-63
2023/06/29 14:20:33;;;;;;;5.57;1.88;;;;;;;;;;5014635;28;20030;-64
2023/06/29 14:22:59;;;;;;;7.68;2.13;;;;;;;;;;4997272;28;20034;-63
2023/06/29 14:25:25;;;;;;;5.18;1.83;;;;;;;;;;4997207;28;20414;-63
2023/06/29 14:27:50;;;;;;;3.65;1.50;;;;;;;;;;5014341;28;20099;-62
2023/06/29 14:30:16;;;;;;;2.60;1.40;;;;;;;;;;5014651;28;20029;-62
2023/06/29 14:32:41;;;;;;;6.85;1.45;;;;;;;;;;5014574;28;20075;-62
2023/06/29 14:35:07;;;;;;;5.35;1.65;;;;;;;;;;5014593;28;20058;-63
2023/06/29 14:37:33;;;;;;;2.72;1.30;;;;;;;;;;5014512;28;20374;-63
2023/06/29 14:40:00;;;;;;;2.55;1.45;;;;;;;;;;5014373;28;20112;-63